Time;durP1;ratioP1;P1;durP2;ratioP2;P2;SDS_P1;SDS_P2;PMS_P1;PMS_P2;Temp;Humidity;BMP_temperature;BMP_pressure;BME280_temperature;BME280_humidity;BME280_pressure;Samples;Min_cycle;Max_cycle;Signal;HPM_P1;HPM_P2
2023/02/12 00:01:34;;;;;;;;;6.00;6.00;;;;;22.65;51.78;103637.41;5035242;28;46277;-78
2023/02/12 00:04:00;;;;;;;;;6.67;5.67;;;;;22.63;51.49;103640.19;5021817;28;45383;-79
2023/02/12 00:06:26;;;;;;;;;8.67;8.00;;;;;22.62;52.06;103633.19;5035099;28;45733;-76
2023/02/12 00:08:54;;;;;;;;;8.00;7.33;;;;;22.63;51.75;103628.72;5035321;28;45494;-76
2023/02/12 00:11:22;;;;;;;;;7.67;6.67;;;;;22.63;52.26;103624.28;5035774;28;46530;-79
2023/02/12 00:13:47;;;;;;;;;6.00;5.00;;;;;22.32;51.37;103580.63;5034835;28;45410;-78
2023/02/12 00:16:17;;;;;;;;;9.00;7.33;;;;;22.48;51.00;103598.91;5035112;28;45373;-82
2023/02/12 00:18:43;;;;;;;;;6.33;6.33;;;;;22.64;50.98;103635.72;5033964;28;45417;-78
2023/02/12 00:21:09;;;;;;;;;6.67;5.67;;;;;22.55;50.14;103607.22;5017856;28;47208;-80
2023/02/12 00:23:37;;;;;;;;;9.00;6.00;;;;;22.41;50.33;103582.59;5039196;28;45397;-77
2023/02/12 00:26:07;;;;;;;;;8.75;8.75;;;;;22.61;49.80;103620.03;5035618;28;45361;-79
2023/02/12 00:28:32;;;;;;;;;7.33;6.00;;;;;22.56;49.27;103615.06;5036056;28;45592;-79
2023/02/12 00:30:58;;;;;;;;;8.67;5.67;;;;;22.37;48.37;103582.00;5029707;28;47161;-79
2023/02/12 00:33:23;;;;;;;;;7.00;7.00;;;;;22.31;48.35;103568.31;5025235;28;45525;-82
2023/02/12 00:35:55;;;;;;;;;5.00;5.00;;;;;22.22;48.10;103559.28;5032263;28;45840;-79
2023/02/12 00:38:21;;;;;;;;;6.00;6.00;;;;;22.47;48.35;103597.19;5033943;28;45477;-79
2023/02/12 00:40:46;;;;;;;;;8.00;7.00;;;;;22.46;48.46;103616.72;5017227;28;47778;-80
2023/02/12 00:43:11;;;;;;;;;9.00;8.00;;;;;22.48;48.21;103615.63;5034607;28;45394;-78
2023/02/12 00:45:37;;;;;;;;;7.67;6.33;;;;;22.33;48.67;103595.59;5034269;28;45351;-78
2023/02/12 00:48:03;;;;;;;;;6.75;6.75;;;;;22.31;48.47;103592.19;5034732;28;45541;-79
2023/02/12 00:50:28;;;;;;;;;8.00;6.67;;;;;22.34;48.48;103599.94;5035029;28;47280;-79
2023/02/12 00:52:54;;;;;;;;;6.67;5.67;;;;;22.46;48.35;103625.53;5034290;28;45557;-78
2023/02/12 00:55:20;;;;;;;;;7.00;6.00;;;;;22.46;48.25;103617.56;5034155;28;45423;-79
2023/02/12 00:57:45;;;;;;;;;5.33;5.00;;;;;22.44;48.21;103614.19;5035181;28;45307;-78
2023/02/12 01:00:11;;;;;;;;;8.00;7.67;;;;;22.39;48.34;103619.00;5034944;28;46154;-79
2023/02/12 01:02:37;;;;;;;;;7.00;7.00;;;;;22.42;47.84;103602.84;5025535;28;45418;-79
2023/02/12 01:05:03;;;;;;;;;5.67;5.67;;;;;22.39;48.41;103609.25;5028167;28;45404;-79
2023/02/12 01:07:28;;;;;;;;;6.00;6.00;;;;;22.13;47.62;103566.09;5016658;28;45472;-79
2023/02/12 01:09:53;;;;;;;;;6.33;5.00;;;;;22.37;48.28;103603.22;5035043;28;45470;-79
2023/02/12 01:12:19;;;;;;;;;9.00;8.00;;;;;22.12;47.63;103565.25;5034825;28;45489;-79
2023/02/12 01:14:45;;;;;;;;;8.00;8.00;;;;;22.17;48.29;103575.53;5035160;28;45454;-79
2023/02/12 01:17:10;;;;;;;;;8.00;7.00;;;;;22.34;47.72;103611.41;5035150;28;45351;-79
2023/02/12 01:19:35;;;;;;;;;7.67;4.33;;;;;22.28;48.26;103602.09;5034760;28;45363;-78
2023/02/12 01:22:01;;;;;;;;;11.67;6.33;;;;;22.33;47.98;103609.69;5034557;28;45406;-78
2023/02/12 01:24:26;;;;;;;;;6.67;6.00;;;;;22.32;47.59;103612.47;5034934;28;45415;-79
2023/02/12 01:26:51;;;;;;;;;7.67;6.00;;;;;22.24;48.19;103594.47;5034927;28;45497;-78
2023/02/12 01:29:17;;;;;;;;;7.33;5.00;;;;;22.31;48.13;103614.25;5034743;28;46966;-79
2023/02/12 01:31:42;;;;;;;;;7.00;6.00;;;;;22.32;48.17;103610.66;5034642;28;45425;-78
2023/02/12 01:34:10;;;;;;;;;7.00;5.67;;;;;22.16;47.89;103581.78;5034858;28;45521;-78
2023/02/12 01:36:35;;;;;;;;;4.67;4.67;;;;;22.17;47.95;103592.28;5034566;28;45457;-79
2023/02/12 01:39:01;;;;;;;;;6.33;6.33;;;;;22.26;47.90;103609.31;5034599;28;45430;-79
2023/02/12 01:41:38;;;;;;;;;10.00;5.67;;;;;22.11;47.74;103584.78;5034777;28;45364;-78
2023/02/12 01:44:21;;;;;;;;;4.33;4.33;;;;;22.11;48.07;103583.94;5034723;28;45393;-79
2023/02/12 01:46:53;;;;;;;;;6.25;6.25;;;;;22.28;48.04;103610.03;5034693;28;45268;-78
2023/02/12 01:49:37;;;;;;;;;8.00;6.33;;;;;21.92;47.45;103556.97;5036499;28;46208;-78
2023/02/12 01:52:09;;;;;;;;;7.67;5.67;;;;;22.05;47.94;103574.63;5037843;28;45464;-78
2023/02/12 01:54:36;;;;;;;;;8.00;8.00;;;;;22.05;47.85;103559.56;5038073;28;45340;-78
2023/02/12 01:57:05;;;;;;;;;7.00;6.00;;;;;22.26;47.91;103604.00;5037942;28;45354;-79
2023/02/12 01:59:32;;;;;;;;;8.67;5.33;;;;;22.17;47.71;103591.44;5037865;28;46293;-79
2023/02/12 02:01:57;;;;;;;;;6.33;5.00;;;;;22.12;47.74;103586.47;5037659;28;45404;-79
2023/02/12 02:04:28;;;;;;;;;7.00;5.67;;;;;22.26;47.96;103613.75;5037603;28;45307;-79
2023/02/12 02:06:59;;;;;;;;;7.00;5.67;;;;;22.25;47.35;103615.56;5037839;28;45466;-78
2023/02/12 02:09:25;;;;;;;;;7.00;6.00;;;;;22.03;47.93;103572.09;5037511;28;46083;-78
2023/02/12 02:14:36;;;;;;;;;6.33;4.33;;;;;22.18;47.46;103606.38;5037794;28;45469;-78
2023/02/12 02:17:22;;;;;;;;;4.00;4.00;;;;;22.25;47.99;103620.03;5037672;28;45319;-78
2023/02/12 02:20:03;;;;;;;;;9.00;6.33;;;;;22.24;47.89;103623.66;5037027;28;45423;-79
2023/02/12 02:22:49;;;;;;;;;10.67;7.00;;;;;22.24;47.82;103616.53;5037534;28;45403;-79
2023/02/12 02:25:27;;;;;;;;;7.33;6.00;;;;;22.24;47.56;103611.25;5037637;28;45565;-78
2023/02/12 02:28:10;;;;;;;;;6.67;5.67;;;;;22.24;47.77;103608.59;5037488;28;45498;-78
2023/02/12 02:30:57;;;;;;;;;6.00;6.00;;;;;22.24;47.45;103610.38;5037117;28;45337;-79
2023/02/12 02:33:36;;;;;;;;;8.67;5.33;;;;;22.25;47.49;103606.78;5036834;28;45569;-80
2023/02/12 02:36:33;;;;;;;;;8.67;5.00;;;;;22.24;47.95;103607.75;5037368;28;45402;-79
2023/02/12 02:39:31;;;;;;;;;5.00;5.00;;;;;22.24;47.88;103608.59;5037169;28;45302;-79
2023/02/12 02:42:07;;;;;;;;;7.67;5.67;;;;;22.19;47.79;103597.47;5036993;28;46294;-79
2023/02/12 02:44:43;;;;;;;;;8.00;6.00;;;;;22.10;47.53;103571.63;5036963;28;45341;-79
2023/02/12 02:47:12;;;;;;;;;6.00;5.00;;;;;22.24;47.44;103600.63;5036817;28;45354;-79
2023/02/12 02:49:44;;;;;;;;;12.00;7.00;;;;;22.05;47.90;103572.81;5037067;28;45302;-79
2023/02/12 02:52:16;;;;;;;;;8.00;6.00;;;;;22.04;47.45;103568.47;5036898;28;46156;-78
2023/02/12 02:54:48;;;;;;;;;7.00;7.00;;;;;22.17;47.45;103592.28;5036903;28;45455;-79
2023/02/12 02:57:20;;;;;;;;;7.67;5.00;;;;;22.22;47.37;103594.59;5036973;28;45375;-79
2023/02/12 02:59:52;;;;;;;;;6.67;6.00;;;;;22.19;47.96;103586.88;5036946;28;45164;-79
2023/02/12 03:02:28;;;;;;;;;6.67;5.00;;;;;22.13;47.73;103580.22;5036261;28;46435;-79
2023/02/12 03:04:59;;;;;;;;;9.00;7.00;;;;;22.22;47.51;103599.06;5018869;28;45385;-80
2023/02/12 03:07:32;;;;;;;;;7.00;4.00;;;;;22.04;47.81;103572.94;5037046;28;45647;-79
2023/02/12 03:10:09;;;;;;;;;6.00;4.00;;;;;22.22;47.12;103596.41;5036972;28;45484;-79
2023/02/12 03:12:39;;;;;;;;;6.67;5.33;;;;;22.22;46.99;103596.41;5036690;28;46054;-79
2023/02/12 03:15:17;;;;;;;;;4.67;4.33;;;;;22.23;47.57;103595.44;5036619;28;45428;-79
2023/02/12 03:17:48;;;;;;;;;9.00;6.00;;;;;22.22;47.33;103588.44;5036359;28;45292;-80
2023/02/12 03:20:21;;;;;;;;;7.67;6.67;;;;;22.22;47.11;103586.66;5036767;28;45406;-79
2023/02/12 03:22:53;;;;;;;;;8.33;6.00;;;;;21.90;47.33;103534.19;5036447;28;46321;-78
2023/02/12 03:25:39;;;;;;;;;9.00;6.33;;;;;22.17;47.04;103579.00;5036358;28;45479;-79
2023/02/12 03:28:18;;;;;;;;;6.00;6.00;;;;;22.05;47.28;103561.38;5036667;28;45362;-79
2023/02/12 03:30:58;;;;;;;;;6.33;6.00;;;;;22.14;46.84;103579.25;5036056;28;45460;-79
2023/02/12 03:33:34;;;;;;;;;5.33;5.00;;;;;22.06;46.75;103555.13;5036002;28;46494;-79
2023/02/12 03:36:13;;;;;;;;;8.33;4.33;;;;;22.03;46.89;103547.38;5036419;28;45387;-79
2023/02/12 03:38:46;;;;;;;;;6.50;4.00;;;;;22.20;46.66;103579.75;5036347;28;45334;-79
2023/02/12 03:41:23;;;;;;;;;5.00;5.00;;;;;22.20;47.08;103577.13;5036196;28;45382;-78
2023/02/12 03:43:58;;;;;;;;;5.00;4.00;;;;;22.21;47.13;103578.78;5036055;28;46106;-79
2023/02/12 03:46:42;;;;;;;;;9.00;5.33;;;;;22.20;46.65;103577.94;5035596;28;45413;-79
2023/02/12 03:49:20;;;;;;;;;5.67;5.00;;;;;22.19;47.08;103576.25;5018389;28;45447;-79
2023/02/12 03:51:45;;;;;;;;;5.33;5.00;;;;;22.15;46.52;103566.81;5036141;28;45334;-79
2023/02/12 03:54:15;;;;;;;;;5.67;5.00;;;;;21.94;46.24;103539.16;5036037;28;46195;-79
2023/02/12 03:56:50;;;;;;;;;5.67;5.00;;;;;22.14;46.49;103566.00;5036162;28;45731;-79
2023/02/12 03:59:17;;;;;;;;;6.00;5.00;;;;;21.98;46.42;103547.75;5036191;28;45344;-79
2023/02/12 04:01:43;;;;;;;;;8.00;5.00;;;;;22.04;46.88;103543.78;5035485;28;45453;-78
2023/02/12 04:04:09;;;;;;;;;6.67;5.67;;;;;22.04;46.32;103536.66;5035938;28;45303;-78
2023/02/12 04:06:34;;;;;;;;;5.67;4.00;;;;;22.14;46.75;103554.53;5035955;28;45355;-79
2023/02/12 04:09:08;;;;;;;;;4.00;3.00;;;;;21.99;46.65;103527.38;5035960;28;45422;-79
2023/02/12 04:11:42;;;;;;;;;4.33;4.33;;;;;22.20;46.24;103563.84;5035467;28;45366;-79
2023/02/12 04:14:35;;;;;;;;;6.67;5.00;;;;;22.17;46.03;103555.13;5035308;28;47110;-79
2023/02/12 04:17:09;;;;;;;;;9.00;4.33;;;;;22.18;46.05;103558.66;5035679;28;45464;-78
2023/02/12 04:19:49;;;;;;;;;5.00;5.00;;;;;22.09;45.97;103546.09;5035843;28;45319;-78
2023/02/12 04:22:28;;;;;;;;;5.00;5.00;;;;;22.17;46.50;103551.66;5035612;28;45465;-79
2023/02/12 04:25:11;;;;;;;;;5.00;4.00;;;;;22.17;46.00;103559.63;5035565;28;46192;-79
2023/02/12 04:27:56;;;;;;;;;3.00;3.00;;;;;22.01;46.65;103526.31;5017689;28;45323;-79
2023/02/12 04:30:32;;;;;;;;;4.00;4.00;;;;;22.17;46.43;103554.31;5035278;28;45397;-79
2023/02/12 04:33:03;;;;;;;;;3.00;2.33;;;;;22.12;45.84;103545.88;5035370;28;45433;-79
2023/02/12 04:35:41;;;;;;;;;4.67;4.00;;;;;22.11;46.14;103546.81;5035052;28;46602;-79
2023/02/12 04:38:39;;;;;;;;;6.00;4.00;;;;;21.91;46.32;103517.34;5017565;28;45465;-79
2023/02/12 04:41:06;;;;;;;;;4.67;4.67;;;;;22.11;45.65;103555.63;5016258;28;45376;-79
2023/02/12 04:43:35;;;;;;;;;5.00;4.00;;;;;22.03;46.03;103544.75;5035072;28;45364;-77
2023/02/12 04:46:01;;;;;;;;;3.67;3.33;;;;;22.06;45.84;103549.81;5035046;28;45672;-78
2023/02/12 04:48:27;;;;;;;;;5.33;4.33;;;;;22.07;46.22;103556.78;5035377;28;45402;-79
2023/02/12 04:50:52;;;;;;;;;4.33;4.33;;;;;22.15;45.74;103575.63;5035371;28;45275;-79
2023/02/12 04:53:18;;;;;;;;;4.00;4.00;;;;;21.85;45.47;103534.50;5035344;28;45550;-79
2023/02/12 04:55:44;;;;;;;;;6.33;5.00;;;;;22.14;45.98;103570.47;5035251;28;45420;-79
2023/02/12 04:58:09;;;;;;;;;4.00;3.00;;;;;22.07;45.88;103560.28;5034819;28;45252;-78
2023/02/12 05:00:35;;;;;;;;;5.67;3.67;;;;;22.14;45.46;103579.25;5035220;28;45592;-78
2023/02/12 05:03:00;;;;;;;;;4.00;4.00;;;;;22.09;45.52;103575.25;5035290;28;45329;-79
2023/02/12 05:05:26;;;;;;;;;4.00;4.00;;;;;21.98;45.64;103547.75;5035234;28;45905;-79
2023/02/12 05:07:51;;;;;;;;;3.33;3.00;;;;;22.13;45.50;103566.94;5035202;28;45444;-78
2023/02/12 05:10:17;;;;;;;;;3.67;3.67;;;;;21.93;45.45;103541.94;5035209;28;45437;-79
2023/02/12 05:12:42;;;;;;;;;6.00;5.00;;;;;22.07;45.38;103570.91;5034862;28;45515;-79
2023/02/12 05:15:08;;;;;;;;;6.33;4.00;;;;;22.05;45.38;103556.06;5035002;28;45417;-79
2023/02/12 05:17:33;;;;;;;;;3.00;3.00;;;;;21.97;45.68;103548.69;5035146;28;45464;-78
2023/02/12 05:19:59;;;;;;;;;3.33;3.00;;;;;21.98;45.16;103546.88;5035312;28;45366;-79
2023/02/12 05:22:24;;;;;;;;;3.67;3.00;;;;;22.11;45.52;103571.53;5034979;28;45315;-79
2023/02/12 05:24:49;;;;;;;;;7.33;3.00;;;;;22.12;45.46;103573.19;5038157;28;45331;-79
2023/02/12 05:27:15;;;;;;;;;3.67;3.67;;;;;22.07;45.05;103562.09;5038091;28;45356;-78
2023/02/12 05:29:40;;;;;;;;;5.00;4.00;;;;;22.12;45.16;103573.19;5038411;28;45240;-78
2023/02/12 05:32:06;;;;;;;;;3.67;3.67;;;;;22.13;45.10;103568.75;5038556;28;45367;-79
2023/02/12 05:34:32;;;;;;;;;5.00;2.67;;;;;22.14;45.40;103566.00;5037854;28;45995;-79
2023/02/12 05:36:57;;;;;;;;;5.00;3.67;;;;;22.14;44.94;103565.16;5038407;28;45283;-78
2023/02/12 05:39:22;;;;;;;;;3.00;3.00;;;;;22.14;44.95;103571.31;5038450;28;45259;-79
2023/02/12 05:41:48;;;;;;;;;2.67;2.67;;;;;22.06;44.77;103553.31;5037964;28;45240;-79
2023/02/12 05:44:14;;;;;;;;;3.00;3.00;;;;;21.98;44.72;103550.38;5038051;28;47038;-78
2023/02/12 05:46:40;;;;;;;;;2.67;2.67;;;;;22.05;44.68;103556.06;5038024;28;45359;-79
2023/02/12 05:49:05;;;;;;;;;3.33;3.33;;;;;21.95;45.25;103540.84;5020443;28;45711;-79
2023/02/12 05:51:31;;;;;;;;;2.33;2.33;;;;;22.06;44.50;103552.47;5038261;28;45444;-80
2023/02/12 05:54:00;;;;;;;;;3.00;3.00;;;;;22.10;45.27;103566.31;5037893;28;46211;-79
2023/02/12 05:56:27;;;;;;;;;3.00;3.00;;;;;22.09;45.30;103562.84;5037710;28;45403;-79
2023/02/12 05:59:02;;;;;;;;;3.00;3.00;;;;;21.97;45.07;103540.72;5038010;28;45325;-78
2023/02/12 06:01:34;;;;;;;;;3.00;3.00;;;;;21.96;45.16;103539.06;5037740;28;45256;-78
2023/02/12 06:04:00;;;;;;;;;4.00;4.00;;;;;21.95;44.71;103535.56;5037703;28;46356;-79
2023/02/12 06:06:28;;;;;;;;;4.00;4.00;;;;;22.04;45.06;103559.69;5019806;28;45249;-78
2023/02/12 06:08:53;;;;;;;;;2.00;2.00;;;;;22.00;44.87;103542.31;5037945;28;45414;-79
2023/02/12 06:11:19;;;;;;;;;5.67;3.00;;;;;22.02;44.97;103551.84;5037502;28;45585;-79
2023/02/12 06:13:45;;;;;;;;;5.00;3.67;;;;;22.12;44.96;103557.28;5037636;28;47055;-79
2023/02/12 06:16:27;;;;;;;;;3.33;2.00;;;;;22.07;44.46;103540.88;5037491;28;45452;-78
2023/02/12 06:18:54;;;;;;;;;4.33;2.00;;;;;22.12;44.97;103546.69;5037855;28;45243;-79
2023/02/12 06:21:21;;;;;;;;;3.00;2.00;;;;;21.98;44.89;103528.31;5037737;28;45255;-79
2023/02/12 06:23:48;;;;;;;;;2.00;2.00;;;;;22.10;44.89;103545.13;5037421;28;46293;-79
2023/02/12 06:26:14;;;;;;;;;2.67;2.67;;;;;22.02;44.65;103537.72;5037009;28;45399;-80
2023/02/12 06:28:39;;;;;;;;;3.00;3.00;;;;;22.10;45.03;103548.63;5037636;28;45326;-79
2023/02/12 06:31:04;;;;;;;;;3.00;3.00;;;;;22.10;44.83;103537.16;5037563;28;45320;-79
2023/02/12 06:33:30;;;;;;;;;2.00;2.00;;;;;21.90;44.80;103515.63;5018887;28;48421;-79
2023/02/12 06:35:55;;;;;;;;;4.00;3.00;;;;;21.89;44.26;103514.78;5037311;28;45267;-79
2023/02/12 06:38:21;;;;;;;;;2.33;2.33;;;;;22.01;44.86;103544.00;5037442;28;45334;-78
2023/02/12 06:40:46;;;;;;;;;3.00;3.00;;;;;21.90;44.54;103527.09;5037208;28;45338;-79
2023/02/12 06:43:11;;;;;;;;;2.67;2.00;;;;;22.11;44.98;103558.28;5037036;28;47516;-78
2023/02/12 06:45:37;;;;;;;;;2.67;2.33;;;;;22.06;44.66;103549.81;5037091;28;45246;-78
2023/02/12 06:48:02;;;;;;;;;2.33;2.33;;;;;22.01;44.31;103544.00;5037322;28;45302;-79
2023/02/12 06:50:28;;;;;;;;;4.00;2.00;;;;;22.10;44.34;103550.41;5037230;28;45223;-79
2023/02/12 06:52:54;;;;;;;;;1.00;1.00;;;;;21.90;44.25;103528.91;5019085;28;46800;-78
2023/02/12 06:55:19;;;;;;;;;1.67;1.33;;;;;22.02;44.47;103549.19;5036738;28;45467;-79
2023/02/12 06:57:44;;;;;;;;;2.00;1.67;;;;;22.03;44.30;103547.38;5037089;28;45494;-79
2023/02/12 07:00:10;;;;;;;;;2.00;2.00;;;;;22.09;44.69;103551.41;5037125;28;45439;-79
2023/02/12 07:02:36;;;;;;;;;2.00;2.00;;;;;22.09;44.41;103556.69;5036696;28;46435;-79
2023/02/12 07:05:01;;;;;;;;;2.00;2.00;;;;;21.90;44.51;103521.78;5036864;28;45346;-79
2023/02/12 07:07:26;;;;;;;;;2.33;2.00;;;;;21.69;44.68;103476.50;5036923;28;45378;-79
2023/02/12 07:09:52;;;;;;;;;1.67;1.00;;;;;22.09;44.14;103539.00;5036503;28;45540;-78
2023/02/12 07:12:17;;;;;;;;;2.00;2.00;;;;;21.96;44.16;103533.75;5018725;28;47478;-79
2023/02/12 07:14:42;;;;;;;;;2.00;2.00;;;;;21.93;44.46;103529.53;5036712;28;45426;-79
2023/02/12 07:17:08;;;;;;;;;5.00;2.00;;;;;22.01;44.42;103541.34;5036942;28;45428;-79
2023/02/12 07:19:34;;;;;;;;;3.33;2.00;;;;;22.00;44.03;103542.31;5036860;28;45308;-79
2023/02/12 07:21:59;;;;;;;;;2.00;1.00;;;;;22.11;44.58;103560.06;5035113;28;46986;-79
2023/02/12 07:24:25;;;;;;;;;2.33;2.33;;;;;22.11;44.32;103568.03;5036265;28;45305;-79
2023/02/12 07:26:50;;;;;;;;;1.00;1.00;;;;;22.06;43.92;103555.13;5036688;28;45795;-79
2023/02/12 07:29:16;;;;;;;;;1.67;1.67;;;;;22.05;44.39;103559.56;5036777;28;45418;-79
2023/02/12 07:31:41;;;;;;;;;1.67;1.33;;;;;22.11;43.82;103571.53;5036267;28;46127;-78
2023/02/12 07:34:08;;;;;;;;;2.00;1.00;;;;;22.12;44.12;103569.72;5036303;28;45287;-78
2023/02/12 07:36:34;;;;;;;;;3.00;2.00;;;;;22.11;44.19;103566.22;5036655;28;45343;-78
2023/02/12 07:39:00;;;;;;;;;2.00;1.67;;;;;21.98;44.32;103555.69;5036001;28;45341;-79
2023/02/12 07:41:30;;;;;;;;;2.67;2.67;;;;;22.12;44.34;103573.19;5036352;28;47333;-79
2023/02/12 07:43:58;;;;;;;;;3.00;3.00;;;;;22.07;44.19;103564.75;5036224;28;45339;-79
2023/02/12 07:46:30;;;;;;;;;1.00;1.00;;;;;22.11;43.88;103568.88;5035151;28;45461;-79
2023/02/12 07:48:58;;;;;;;;;2.00;2.00;;;;;22.11;44.31;103568.88;5036500;28;45393;-79
2023/02/12 07:51:25;;;;;;;;;2.00;2.00;;;;;21.91;44.17;103538.56;5035674;28;46116;-79
2023/02/12 07:53:50;;;;;;;;;2.67;2.67;;;;;21.99;44.17;103548.59;5036056;28;45347;-79
2023/02/12 07:56:22;;;;;;;;;2.00;2.00;;;;;22.13;44.07;103574.06;5036253;28;45390;-79
2023/02/12 07:58:50;;;;;;;;;3.00;2.00;;;;;22.11;44.27;103574.19;5036394;28;45312;-79
2023/02/12 08:01:22;;;;;;;;;2.00;2.00;;;;;22.10;44.22;103579.59;5035856;28;46350;-80
2023/02/12 08:03:48;;;;;;;;;1.00;1.00;;;;;22.06;43.67;103573.69;5035916;28;45449;-79
2023/02/12 08:06:25;;;;;;;;;1.00;1.00;;;;;21.96;44.36;103562.91;5035747;28;45307;-79
2023/02/12 08:08:53;;;;;;;;;2.00;2.00;;;;;22.09;44.24;103578.75;5036234;28;45623;-79
2023/02/12 08:11:18;;;;;;;;;3.00;2.67;;;;;21.94;43.65;103570.09;5035773;28;46135;-79
2023/02/12 08:13:44;;;;;;;;;1.00;1.00;;;;;22.09;43.96;103585.88;5035707;28;45428;-79
2023/02/12 08:16:15;;;;;;;;;2.33;1.33;;;;;22.05;44.04;103582.56;5036050;28;45383;-78
2023/02/12 08:18:40;;;;;;;;;2.00;2.00;;;;;22.09;43.89;103588.50;5035803;28;45369;-79
2023/02/12 08:21:08;;;;;;;;;2.00;2.00;;;;;22.01;43.61;103581.13;5035326;28;46231;-79
2023/02/12 08:23:34;;;;;;;;;2.00;1.00;;;;;21.95;43.79;103575.31;5035750;28;45353;-79
2023/02/12 08:26:13;;;;;;;;;1.00;1.00;;;;;22.10;44.09;103590.19;5035695;28;45281;-79
2023/02/12 08:28:41;;;;;;;;;3.33;1.67;;;;;21.94;43.92;103575.41;5035915;28;45488;-78
2023/02/12 08:31:12;;;;;;;;;2.00;2.00;;;;;22.07;43.45;103592.09;5035254;28;46622;-78
2023/02/12 08:33:37;;;;;;;;;2.00;1.67;;;;;21.95;43.65;103572.66;5035308;28;45546;-79
2023/02/12 08:36:10;;;;;;;;;2.00;2.00;;;;;22.06;44.06;103582.47;5035321;28;45208;-78
2023/02/12 08:38:36;;;;;;;;;2.00;2.00;;;;;21.94;43.66;103572.75;5035813;28;45394;-78
2023/02/12 08:41:08;;;;;;;;;1.67;1.00;;;;;22.07;43.88;103597.41;5035297;28;46371;-77
2023/02/12 08:43:34;;;;;;;;;2.33;2.00;;;;;21.97;44.08;103577.84;5035376;28;45444;-78
2023/02/12 08:46:10;;;;;;;;;2.00;2.00;;;;;22.06;43.99;103601.03;5035470;28;45439;-78
2023/02/12 08:48:37;;;;;;;;;4.67;3.00;;;;;22.07;44.06;103602.72;5035479;28;45286;-78
2023/02/12 08:51:13;;;;;;;;;1.00;1.00;;;;;22.04;43.90;103594.16;5034848;28;46218;-77
2023/02/12 08:53:40;;;;;;;;;1.00;1.00;;;;;22.04;43.93;103589.69;5035147;28;45361;-78
2023/02/12 08:56:06;;;;;;;;;1.67;1.00;;;;;22.07;43.88;103597.41;5035569;28;45308;-77
2023/02/12 08:58:32;;;;;;;;;1.00;1.00;;;;;22.08;43.87;103592.97;5037905;28;45397;-78
2023/02/12 09:00:57;;;;;;;;;1.00;1.00;;;;;22.05;43.43;103588.72;5038542;28;46186;-78
2023/02/12 09:03:23;;;;;;;;;2.33;2.00;;;;;22.09;43.88;103592.00;5038574;28;45497;-78
2023/02/12 09:05:49;;;;;;;;;2.00;2.00;;;;;21.92;43.84;103569.38;5038424;28;45326;-78
2023/02/12 09:08:14;;;;;;;;;1.00;1.00;;;;;21.92;43.04;103566.72;5038877;28;45256;-78
2023/02/12 09:10:41;;;;;;;;;1.00;1.00;;;;;22.07;43.34;103589.47;5038589;28;46369;-79
2023/02/12 09:13:08;;;;;;;;;1.00;0.67;;;;;22.10;43.66;103598.13;5038762;28;45430;-78
2023/02/12 09:15:41;;;;;;;;;1.00;1.00;;;;;22.11;43.12;103589.25;5038733;28;45366;-78
2023/02/12 09:18:07;;;;;;;;;3.33;2.00;;;;;22.10;43.14;103582.22;5038758;28;45351;-77
2023/02/12 09:20:35;;;;;;;;;3.00;2.00;;;;;22.11;43.63;103591.88;5038098;28;45671;-77
2023/02/12 09:23:01;;;;;;;;;1.33;1.00;;;;;21.89;43.62;103554.56;5038393;28;45599;-79
2023/02/12 09:25:26;;;;;;;;;1.33;1.00;;;;;21.94;43.75;103563.00;5038564;28;45362;-78
2023/02/12 09:27:51;;;;;;;;;1.00;1.00;;;;;22.07;43.53;103583.31;5038589;28;45531;-77
2023/02/12 09:30:17;;;;;;;;;1.00;1.00;;;;;22.07;43.13;103593.91;5038270;28;46078;-78
2023/02/12 09:32:42;;;;;;;;;1.67;1.67;;;;;22.10;43.63;103599.00;5038392;28;45484;-78
2023/02/12 09:35:10;;;;;;;;;3.00;2.33;;;;;22.10;43.22;103587.53;5037989;28;45551;-78
2023/02/12 09:37:35;;;;;;;;;2.67;2.00;;;;;22.10;43.11;103599.00;5038409;28;45307;-78
2023/02/12 09:40:00;;;;;;;;;1.00;1.00;;;;;22.10;43.57;103604.28;5038089;28;45496;-77
2023/02/12 09:43:05;;;;;;;;;2.33;1.00;;;;;22.03;43.02;103588.00;5038262;28;45432;-78
2023/02/12 09:46:03;;;;;;;;;0.00;0.00;;;;;22.01;43.02;103581.13;5038025;28;45346;-77
2023/02/12 09:48:49;;;;;;;;;1.33;1.33;;;;;22.09;42.98;103599.97;4937352;28;45656;-78
2023/02/12 09:51:14;;;;;;;;;2.00;2.00;;;;;22.07;43.48;103608.03;4937483;28;45665;-78
2023/02/12 09:53:44;;;;;;;;;0.33;0.33;;;;;22.08;42.92;103606.22;4937441;28;45453;-78
2023/02/12 09:56:17;;;;;;;;;1.33;1.00;;;;;22.04;43.17;103592.31;4937841;28;45414;-77
2023/02/12 09:58:52;;;;;;;;;0.33;0.00;;;;;21.95;43.51;103585.91;4937569;28;45609;-76
2023/02/12 10:01:20;;;;;;;;;1.00;1.00;;;;;22.07;43.20;103597.41;4943060;28;46461;-76
2023/02/12 10:03:48;;;;;;;;;3.00;1.33;;;;;22.04;43.30;103602.94;4956359;28;45529;-76
2023/02/12 10:06:21;;;;;;;;;2.00;1.00;;;;;22.07;43.25;103594.75;4956646;28;45414;-76
2023/02/12 10:08:56;;;;;;;;;3.33;1.67;;;;;21.96;43.45;103586.78;4956065;28;45363;-77
2023/02/12 10:11:26;;;;;;;;;1.00;1.00;;;;;21.84;43.79;103567.25;4956412;28;45649;-78
2023/02/12 10:13:52;;;;;;;;;1.00;0.00;;;;;22.06;43.79;103602.84;4956596;28;45535;-77
2023/02/12 10:16:35;;;;;;;;;1.67;1.67;;;;;22.06;43.44;103593.09;4956704;28;45486;-77
2023/02/12 10:19:20;;;;;;;;;1.00;1.00;;;;;22.06;43.80;103593.09;4956593;28;45525;-76
2023/02/12 10:22:13;;;;;;;;;4.00;1.00;;;;;22.05;43.35;103604.63;4956387;28;46233;-74
2023/02/12 10:25:01;;;;;;;;;1.00;1.00;;;;;22.03;43.30;103606.56;4968260;28;45322;-75
2023/02/12 10:27:38;;;;;;;;;1.00;1.00;;;;;21.72;43.96;103546.03;5017619;28;45461;-76
2023/02/12 10:30:18;;;;;;;;;1.00;1.00;;;;;21.96;43.48;103592.06;5023065;28;45483;-75
2023/02/12 10:32:46;;;;;;;;;1.00;1.00;;;;;22.06;43.92;103608.16;5036998;28;45385;-75
2023/02/12 10:35:14;;;;;;;;;1.00;1.00;;;;;22.06;43.38;103608.16;5037118;28;45423;-75
2023/02/12 10:37:57;;;;;;;;;1.00;1.00;;;;;21.71;43.87;103549.63;5037171;28;45406;-80
2023/02/12 10:40:29;;;;;;;;;0.67;0.67;;;;;22.06;43.67;103602.84;5037236;28;45454;-77
2023/02/12 10:42:58;;;;;;;;;1.00;1.00;;;;;22.02;43.84;103588.94;5037390;28;46099;-75
2023/02/12 10:45:29;;;;;;;;;2.00;1.00;;;;;22.05;43.73;103593.19;5021781;28;45478;-78
2023/02/12 10:48:06;;;;;;;;;1.00;1.00;;;;;21.85;43.90;103559.22;5021075;28;45324;-77
2023/02/12 10:50:55;;;;;;;;;1.67;1.00;;;;;22.07;43.60;103602.72;5025102;28;45436;-75
2023/02/12 10:53:30;;;;;;;;;1.00;1.00;;;;;22.09;44.24;103589.38;5031095;28;46307;-77
2023/02/12 10:56:10;;;;;;;;;1.00;1.00;;;;;22.10;44.07;103598.13;5038805;28;45279;-78
2023/02/12 10:58:38;;;;;;;;;2.33;1.67;;;;;22.05;44.01;103598.47;5029875;28;45386;-76
2023/02/12 11:01:13;;;;;;;;;2.00;2.00;;;;;22.04;43.67;103579.06;5033105;28;45377;-76
2023/02/12 11:03:39;;;;;;;;;1.00;1.00;;;;;21.80;43.86;103539.31;5029693;28;45455;-77
2023/02/12 11:06:30;;;;;;;;;2.00;1.00;;;;;22.03;43.71;103565.94;5038756;28;45328;-79
2023/02/12 11:08:57;;;;;;;;;1.67;1.67;;;;;22.00;43.80;103560.88;5032137;28;45430;-79
2023/02/12 11:11:35;;;;;;;;;0.67;0.67;;;;;22.00;44.19;103558.22;5036315;28;45325;-77
2023/02/12 11:14:19;;;;;;;;;1.67;1.00;;;;;22.09;43.97;103575.25;5035443;28;45350;-77
2023/02/12 11:17:04;;;;;;;;;1.33;1.33;;;;;22.09;43.72;103565.50;5014650;28;45381;-78
2023/02/12 11:19:33;;;;;;;;;3.00;1.67;;;;;22.11;43.75;103571.53;5030231;28;45406;-77
2023/02/12 11:22:13;;;;;;;;;1.00;1.00;;;;;22.13;43.94;103571.41;5036284;28;45470;-77
2023/02/12 11:24:39;;;;;;;;;2.00;1.00;;;;;22.10;44.07;103558.38;5035795;28;46623;-79
2023/02/12 11:27:27;;;;;;;;;2.00;1.00;;;;;21.88;44.35;103505.16;5036284;28;46098;-79
2023/02/12 11:30:20;;;;;;;;;0.00;0.00;;;;;22.16;44.25;103545.50;5036063;28;45413;-79
2023/02/12 11:32:48;;;;;;;;;1.33;0.33;;;;;22.17;44.27;103555.13;5036519;28;45461;-79
2023/02/12 11:35:24;;;;;;;;;2.00;1.00;;;;;22.18;43.80;103551.53;5035762;28;47249;-80
2023/02/12 11:37:53;;;;;;;;;1.00;1.00;;;;;22.02;44.31;103519.16;5036132;28;45401;-81
2023/02/12 11:40:22;;;;;;;;;1.00;1.00;;;;;22.15;44.46;103538.50;5036634;28;45453;-82
2023/02/12 11:42:51;;;;;;;;;1.00;1.00;;;;;22.00;44.99;103510.50;5035856;28;45327;-81